createdAt,value
2022-11-29T00:01:47.001Z,3.90
2022-11-29T00:04:16.576Z,3.80
2022-11-29T00:06:45.108Z,3.90
2022-11-29T00:09:15.394Z,3.90
2022-11-29T00:12:02.143Z,3.90
2022-11-29T00:14:31.073Z,3.90
2022-11-29T00:17:02.582Z,3.90
2022-11-29T00:19:34.902Z,3.90
2022-11-29T00:22:04.163Z,3.90
2022-11-29T00:24:34.792Z,3.90
2022-11-29T00:27:04.030Z,3.90
2022-11-29T00:29:34.844Z,3.80
2022-11-29T00:32:03.550Z,3.80
2022-11-29T00:34:33.525Z,3.80
2022-11-29T00:37:02.118Z,3.70
2022-11-29T00:39:31.310Z,3.70
2022-11-29T00:42:01.591Z,3.70
2022-11-29T00:44:31.892Z,3.60
2022-11-29T00:47:00.614Z,3.50
2022-11-29T00:49:29.232Z,3.20
2022-11-29T00:51:57.927Z,2.90
2022-11-29T00:54:26.694Z,2.70
2022-11-29T00:56:56.732Z,2.40
2022-11-29T00:59:26.740Z,2.20
2022-11-29T01:01:56.596Z,2.10
2022-11-29T01:04:25.501Z,1.90
2022-11-29T01:06:54.388Z,1.80
2022-11-29T01:09:22.974Z,1.60
2022-11-29T01:11:51.623Z,1.50
2022-11-29T01:14:21.765Z,1.40
2022-11-29T01:16:51.840Z,1.30
2022-11-29T01:19:20.404Z,1.20
2022-11-29T01:21:49.601Z,1.10
2022-11-29T01:24:18.223Z,1.10
2022-11-29T01:29:46.547Z,0.90
2022-11-29T01:32:17.559Z,0.90
2022-11-29T01:34:46.631Z,0.90
2022-11-29T01:37:15.817Z,0.80
2022-11-29T01:39:44.442Z,0.80
2022-11-29T01:42:13.661Z,0.80
2022-11-29T01:45:10.142Z,0.80
2022-11-29T01:47:49.689Z,0.80
2022-11-29T01:50:18.867Z,0.80
2022-11-29T01:52:48.696Z,0.80
2022-11-29T01:58:24.074Z,0.80
2022-11-29T02:00:52.746Z,0.90
2022-11-29T02:03:22.763Z,0.90
2022-11-29T02:05:54.375Z,1.00
2022-11-29T02:08:27.258Z,1.00
2022-11-29T02:11:13.094Z,1.10
2022-11-29T02:13:57.232Z,1.20
2022-11-29T02:16:35.608Z,1.20
2022-11-29T02:19:24.440Z,1.20
2022-11-29T02:21:57.381Z,1.30
2022-11-29T02:24:51.818Z,1.10
2022-11-29T02:27:53.749Z,1.10
2022-11-29T02:30:37.225Z,1.00
2022-11-29T02:33:39.509Z,1.00
2022-11-29T02:36:51.276Z,0.90
2022-11-29T02:39:52.559Z,0.90
2022-11-29T02:42:56.749Z,0.90
2022-11-29T02:45:39.698Z,0.90
2022-11-29T02:48:27.548Z,0.90
2022-11-29T02:51:05.822Z,1.00
2022-11-29T02:53:42.001Z,1.00
2022-11-29T02:56:16.832Z,1.10
2022-11-29T02:58:51.779Z,1.10
2022-11-29T03:01:28.050Z,1.20
2022-11-29T03:04:06.110Z,1.20
2022-11-29T03:06:45.400Z,1.20
2022-11-29T03:09:23.089Z,1.30
2022-11-29T03:12:03.311Z,1.30
2022-11-29T03:14:48.935Z,1.30
2022-11-29T03:17:27.101Z,1.40
2022-11-29T03:20:15.379Z,1.40
2022-11-29T03:22:59.213Z,1.50
2022-11-29T03:25:33.275Z,1.50
2022-11-29T03:28:07.711Z,1.70
2022-11-29T03:30:39.593Z,1.80
2022-11-29T03:33:13.430Z,1.60
2022-11-29T03:35:51.331Z,1.80
2022-11-29T03:38:27.332Z,1.70
2022-11-29T03:41:06.863Z,1.70
2022-11-29T03:43:42.929Z,1.70
2022-11-29T03:46:16.274Z,1.70
2022-11-29T03:48:50.036Z,1.80
2022-11-29T03:51:27.188Z,1.80
2022-11-29T03:54:02.589Z,1.80
2022-11-29T03:56:33.227Z,1.90
2022-11-29T03:59:12.695Z,1.90
2022-11-29T04:02:19.178Z,1.90
2022-11-29T04:05:28.361Z,2.00
2022-11-29T04:08:29.793Z,2.00
2022-11-29T04:11:32.572Z,2.00
2022-11-29T04:14:35.778Z,2.00
2022-11-29T04:17:46.071Z,2.00
2022-11-29T04:20:53.984Z,2.00
2022-11-29T04:24:01.471Z,2.00
2022-11-29T04:27:04.077Z,2.00
2022-11-29T04:29:49.650Z,2.00
2022-11-29T04:32:37.639Z,2.00
2022-11-29T04:35:24.042Z,1.90
2022-11-29T04:38:19.772Z,2.00
2022-11-29T04:41:09.637Z,1.90
2022-11-29T04:43:53.691Z,1.90
2022-11-29T04:46:41.827Z,1.80
2022-11-29T04:49:37.761Z,1.90
2022-11-29T04:52:27.303Z,1.90
2022-11-29T04:55:03.883Z,1.90
2022-11-29T04:57:38.601Z,1.90
2022-11-29T05:00:12.194Z,1.90
2022-11-29T05:02:49.819Z,1.90
2022-11-29T05:05:30.032Z,1.90
2022-11-29T05:08:21.004Z,1.90
2022-11-29T05:11:03.901Z,1.90
2022-11-29T05:13:43.734Z,1.90
2022-11-29T05:16:32.868Z,1.90
2022-11-29T05:19:29.865Z,1.90
2022-11-29T05:22:06.258Z,2.00
2022-11-29T05:24:47.765Z,2.00
2022-11-29T05:27:24.421Z,2.00
2022-11-29T05:30:00.450Z,2.00
2022-11-29T05:32:36.070Z,2.00
2022-11-29T05:35:34.179Z,2.10
2022-11-29T05:38:14.812Z,2.10
2022-11-29T05:40:57.972Z,2.10
2022-11-29T05:43:41.677Z,2.10
2022-11-29T05:46:17.390Z,2.10
2022-11-29T05:48:59.321Z,2.20
2022-11-29T05:51:39.715Z,2.20
2022-11-29T05:54:25.089Z,2.20
2022-11-29T05:57:02.556Z,2.20
2022-11-29T05:59:32.001Z,2.20
2022-11-29T06:02:11.567Z,2.20
2022-11-29T06:04:53.812Z,2.20
2022-11-29T06:07:29.491Z,2.20
2022-11-29T06:10:02.532Z,2.20
2022-11-29T06:12:37.431Z,2.30
2022-11-29T06:15:30.990Z,2.30
2022-11-29T06:18:11.244Z,2.30
2022-11-29T06:21:03.310Z,2.30
2022-11-29T06:23:53.442Z,2.40
2022-11-29T06:26:41.379Z,2.40
2022-11-29T06:29:26.658Z,2.40
2022-11-29T06:32:03.986Z,2.50
2022-11-29T06:34:43.603Z,2.50
2022-11-29T06:37:20.509Z,2.50
2022-11-29T06:39:49.531Z,2.50
2022-11-29T06:42:18.145Z,2.50
2022-11-29T06:44:47.545Z,2.60
2022-11-29T06:47:23.300Z,2.60
2022-11-29T06:49:57.418Z,2.60
2022-11-29T06:52:34.130Z,2.60
2022-11-29T06:55:11.793Z,2.60
2022-11-29T06:58:08.524Z,2.60
2022-11-29T07:00:42.920Z,2.70
2022-11-29T07:03:40.285Z,2.70
2022-11-29T07:06:15.808Z,2.70
2022-11-29T07:08:48.521Z,2.80
2022-11-29T07:11:17.677Z,2.80
2022-11-29T07:13:46.885Z,2.80
2022-11-29T07:16:25.862Z,2.80
2022-11-29T07:19:04.554Z,2.80
2022-11-29T07:21:47.659Z,2.80
2022-11-29T07:24:33.806Z,2.80
2022-11-29T07:27:09.521Z,2.80
2022-11-29T07:29:43.782Z,2.80
2022-11-29T07:32:21.777Z,2.80
2022-11-29T07:35:00.400Z,2.90
2022-11-29T07:37:37.895Z,2.90
2022-11-29T07:40:15.634Z,2.90
2022-11-29T07:42:55.477Z,2.90
2022-11-29T07:45:31.932Z,2.90
2022-11-29T07:48:01.152Z,2.90
2022-11-29T07:50:30.653Z,2.90
2022-11-29T07:53:00.466Z,2.90
2022-11-29T07:55:31.493Z,2.90
2022-11-29T07:58:00.197Z,2.90
2022-11-29T08:00:29.052Z,3.00
2022-11-29T08:02:57.552Z,3.00
2022-11-29T08:05:26.083Z,3.10
2022-11-29T08:07:56.084Z,3.10
2022-11-29T08:10:24.743Z,3.10
2022-11-29T08:12:55.460Z,3.20
2022-11-29T08:15:26.427Z,3.20
2022-11-29T08:17:55.104Z,3.20
2022-11-29T08:20:23.727Z,3.20
2022-11-29T08:22:56.617Z,3.20
2022-11-29T08:25:25.400Z,3.30
2022-11-29T08:27:55.794Z,3.30
2022-11-29T08:30:24.837Z,3.40
2022-11-29T08:32:54.017Z,3.40
2022-11-29T08:35:24.209Z,3.40
2022-11-29T08:37:53.032Z,3.50
2022-11-29T08:40:21.961Z,3.50
2022-11-29T08:42:50.535Z,3.60
2022-11-29T08:45:20.554Z,3.60
2022-11-29T08:47:49.044Z,3.70
2022-11-29T08:50:19.380Z,3.70
2022-11-29T08:53:19.022Z,3.80
2022-11-29T08:55:47.659Z,3.80
2022-11-29T08:58:16.987Z,3.90
2022-11-29T09:00:47.485Z,3.90
2022-11-29T09:03:33.301Z,4.00
2022-11-29T09:06:12.255Z,3.90
2022-11-29T09:08:43.695Z,4.00
2022-11-29T09:11:14.403Z,4.00
2022-11-29T09:13:44.559Z,4.10
2022-11-29T09:16:18.086Z,4.10
2022-11-29T09:18:51.806Z,4.10
2022-11-29T09:21:21.129Z,4.10
2022-11-29T09:23:49.788Z,4.10
2022-11-29T09:26:20.060Z,4.20
2022-11-29T09:28:49.343Z,4.30
2022-11-29T09:31:20.272Z,4.30
2022-11-29T09:33:49.167Z,4.30
2022-11-29T09:36:17.919Z,4.30
2022-11-29T09:38:46.411Z,4.30
2022-11-29T09:41:45.610Z,4.30
2022-11-29T09:44:25.374Z,4.30
2022-11-29T09:47:04.579Z,4.30
2022-11-29T09:49:56.671Z,4.30
2022-11-29T09:52:37.901Z,4.40
2022-11-29T09:55:22.306Z,4.40
2022-11-29T09:57:51.696Z,4.40
2022-11-29T10:00:21.600Z,4.50
2022-11-29T10:02:55.194Z,4.50
2022-11-29T10:05:27.018Z,4.60
2022-11-29T10:08:00.038Z,4.60
2022-11-29T10:10:37.828Z,4.70
2022-11-29T10:13:17.105Z,4.80
2022-11-29T10:15:49.987Z,4.80
2022-11-29T10:18:24.011Z,4.90
2022-11-29T10:20:58.008Z,4.90
2022-11-29T10:23:34.358Z,5.00
2022-11-29T10:26:07.514Z,5.00
2022-11-29T10:28:37.976Z,5.00
2022-11-29T10:31:20.696Z,5.10
2022-11-29T10:33:51.224Z,5.20
2022-11-29T10:36:27.926Z,5.40
2022-11-29T10:39:00.545Z,5.60
2022-11-29T10:41:29.138Z,5.70
2022-11-29T10:44:00.149Z,5.90
2022-11-29T10:46:32.548Z,6.00
2022-11-29T10:49:05.782Z,6.10
2022-11-29T10:51:35.457Z,6.10
2022-11-29T10:54:16.117Z,6.10
2022-11-29T10:56:45.920Z,6.20
2022-11-29T10:59:22.619Z,6.40
2022-11-29T11:01:52.309Z,6.30
2022-11-29T11:04:31.207Z,6.40
2022-11-29T11:07:01.441Z,6.40
2022-11-29T11:09:36.460Z,6.40
2022-11-29T11:12:08.687Z,6.40
2022-11-29T11:14:39.448Z,6.50
2022-11-29T11:17:26.355Z,6.50
2022-11-29T11:20:01.570Z,6.40
2022-11-29T11:22:33.843Z,6.30
2022-11-29T11:25:06.374Z,6.30
2022-11-29T11:27:39.815Z,6.20
2022-11-29T11:30:21.812Z,6.20
2022-11-29T11:33:08.529Z,6.20
2022-11-29T11:35:38.550Z,6.20
2022-11-29T11:38:07.144Z,6.20
2022-11-29T11:40:35.737Z,6.30
2022-11-29T11:43:04.603Z,6.30
2022-11-29T11:45:35.590Z,6.20
2022-11-29T11:48:12.167Z,6.20
2022-11-29T11:50:45.541Z,6.20
2022-11-29T11:53:22.653Z,6.00
2022-11-29T11:56:01.651Z,6.00
2022-11-29T11:58:32.432Z,5.90
2022-11-29T12:01:04.309Z,5.90
2022-11-29T12:03:45.788Z,5.90
2022-11-29T12:06:38.179Z,5.90
2022-11-29T12:09:18.686Z,5.80
2022-11-29T12:11:55.315Z,5.90
2022-11-29T12:14:33.864Z,5.90
2022-11-29T12:17:13.275Z,5.90
2022-11-29T12:19:58.079Z,6.00
2022-11-29T12:22:31.968Z,6.00
2022-11-29T12:25:06.254Z,6.00
2022-11-29T12:27:37.533Z,6.00
2022-11-29T12:30:15.723Z,6.10
2022-11-29T12:33:07.539Z,6.10
2022-11-29T12:36:04.930Z,6.10
2022-11-29T12:38:51.705Z,6.10
2022-11-29T12:41:33.052Z,6.10
2022-11-29T12:44:12.799Z,6.10
2022-11-29T12:46:43.255Z,6.20
2022-11-29T12:49:18.835Z,6.20
2022-11-29T12:51:56.802Z,6.20
2022-11-29T12:54:42.801Z,6.20
2022-11-29T12:57:20.066Z,6.20
2022-11-29T13:00:02.441Z,6.20
2022-11-29T13:02:43.703Z,6.20
2022-11-29T13:05:20.320Z,6.20
2022-11-29T13:08:08.263Z,6.20
2022-11-29T13:10:55.342Z,6.20
2022-11-29T13:13:36.295Z,6.20
2022-11-29T13:16:15.819Z,6.10
2022-11-29T13:18:55.204Z,6.20
2022-11-29T13:21:32.848Z,6.20
2022-11-29T13:24:08.688Z,6.10
2022-11-29T13:26:40.461Z,6.10
2022-11-29T13:29:15.769Z,6.10
2022-11-29T13:31:45.188Z,6.10
2022-11-29T13:34:17.454Z,6.10
2022-11-29T13:36:55.342Z,6.10
2022-11-29T13:39:53.936Z,6.10
2022-11-29T13:42:37.980Z,6.10
2022-11-29T13:45:19.208Z,6.00
2022-11-29T13:47:52.048Z,6.00
2022-11-29T13:50:40.083Z,6.00
2022-11-29T13:53:16.097Z,6.00
2022-11-29T13:55:50.400Z,5.90
2022-11-29T13:58:38.505Z,5.90
2022-11-29T14:01:11.836Z,5.80
2022-11-29T14:03:43.980Z,5.70
2022-11-29T14:06:18.996Z,5.60
2022-11-29T14:09:28.116Z,5.60
2022-11-29T14:12:05.775Z,5.50
2022-11-29T14:14:48.027Z,5.50
2022-11-29T14:17:48.164Z,5.40
2022-11-29T14:20:52.713Z,5.30
2022-11-29T14:23:42.622Z,5.30
2022-11-29T14:26:38.299Z,5.30
2022-11-29T14:29:45.026Z,5.10
2022-11-29T14:32:24.794Z,5.10
2022-11-29T14:34:58.618Z,5.00
2022-11-29T14:37:41.335Z,4.90
2022-11-29T14:40:23.687Z,4.80
2022-11-29T14:42:53.278Z,4.80
2022-11-29T14:45:28.885Z,4.80
2022-11-29T14:48:00.737Z,4.60
2022-11-29T14:50:42.002Z,4.50
2022-11-29T14:53:30.306Z,4.50
2022-11-29T14:56:32.314Z,4.50
2022-11-29T14:59:34.211Z,4.40
2022-11-29T15:02:07.735Z,4.40
2022-11-29T15:04:39.459Z,4.30
2022-11-29T15:07:13.274Z,4.30
2022-11-29T15:09:44.319Z,4.30
2022-11-29T15:12:20.169Z,4.30
2022-11-29T15:14:57.295Z,4.30
2022-11-29T15:17:33.335Z,4.30
2022-11-29T15:20:30.278Z,4.30
2022-11-29T15:23:05.433Z,4.30
2022-11-29T15:25:37.650Z,4.30
2022-11-29T15:28:07.527Z,4.30
2022-11-29T15:30:39.208Z,4.40
2022-11-29T15:33:10.291Z,4.40
2022-11-29T15:35:49.201Z,4.40
2022-11-29T15:38:19.666Z,4.40
2022-11-29T15:40:54.631Z,4.40
2022-11-29T15:43:27.530Z,4.40
2022-11-29T15:45:57.122Z,4.30
2022-11-29T15:48:27.379Z,4.40
2022-11-29T15:51:03.960Z,4.40
2022-11-29T15:53:38.113Z,4.40
2022-11-29T15:56:14.209Z,4.30
2022-11-29T15:58:44.735Z,4.30
2022-11-29T16:01:22.381Z,4.30
2022-11-29T16:03:55.494Z,4.30
2022-11-29T16:06:31.738Z,4.30
2022-11-29T16:09:01.454Z,4.30
2022-11-29T16:11:32.947Z,4.30
2022-11-29T16:14:07.594Z,4.30
2022-11-29T16:16:36.354Z,4.20
2022-11-29T16:19:22.064Z,4.20
2022-11-29T16:22:19.666Z,4.10
2022-11-29T16:24:54.763Z,4.10
2022-11-29T16:27:24.514Z,4.10
2022-11-29T16:29:56.377Z,4.10
2022-11-29T16:32:29.355Z,4.00
2022-11-29T16:35:07.844Z,4.00
2022-11-29T16:37:43.965Z,4.00
2022-11-29T16:40:23.328Z,4.00
2022-11-29T16:43:23.677Z,4.00
2022-11-29T16:46:30.316Z,4.00
2022-11-29T16:49:02.670Z,4.00
2022-11-29T16:51:42.240Z,4.00
2022-11-29T16:54:33.441Z,3.90
2022-11-29T16:57:08.008Z,3.90
2022-11-29T16:59:39.595Z,3.90
2022-11-29T17:02:11.963Z,3.90
2022-11-29T17:04:40.975Z,3.90
2022-11-29T17:07:15.450Z,3.90
2022-11-29T17:09:45.971Z,3.80
2022-11-29T17:12:15.748Z,3.80
2022-11-29T17:14:44.584Z,3.80
2022-11-29T17:17:15.980Z,3.80
2022-11-29T17:19:44.774Z,3.70
2022-11-29T17:22:14.360Z,3.70
2022-11-29T17:24:48.346Z,3.70
2022-11-29T17:27:17.473Z,3.60
2022-11-29T17:29:47.708Z,3.60
2022-11-29T17:32:16.474Z,3.60
2022-11-29T17:34:45.389Z,3.60
2022-11-29T17:37:14.208Z,3.60
2022-11-29T17:39:48.133Z,3.60
2022-11-29T17:42:16.911Z,3.50
2022-11-29T17:44:47.090Z,3.50
2022-11-29T17:47:15.783Z,3.50
2022-11-29T17:49:44.837Z,3.40
2022-11-29T17:52:15.326Z,3.40
2022-11-29T17:54:47.939Z,3.40
2022-11-29T17:57:17.348Z,3.40
2022-11-29T17:59:52.964Z,3.30
2022-11-29T18:02:21.974Z,3.30
2022-11-29T18:04:51.717Z,3.30
2022-11-29T18:07:20.632Z,3.30
2022-11-29T18:09:53.990Z,3.30
2022-11-29T18:12:22.640Z,3.30
2022-11-29T18:14:51.447Z,3.30
2022-11-29T18:17:22.601Z,3.20
2022-11-29T18:19:51.265Z,3.20
2022-11-29T18:22:20.446Z,3.20
2022-11-29T18:24:51.774Z,3.20
2022-11-29T18:27:21.950Z,3.20
2022-11-29T18:29:53.021Z,3.20
2022-11-29T18:32:21.684Z,3.00
2022-11-29T18:34:50.361Z,3.10
2022-11-29T18:37:47.471Z,3.10
2022-11-29T18:40:12.626Z,3.00
2022-11-29T18:42:41.570Z,3.00
2022-11-29T18:45:13.959Z,3.00
2022-11-29T18:47:42.815Z,3.00
2022-11-29T18:50:12.473Z,2.90
2022-11-29T18:52:43.344Z,2.80
2022-11-29T18:55:13.632Z,2.80
2022-11-29T18:57:42.214Z,2.70
2022-11-29T19:00:12.364Z,2.70
2022-11-29T19:02:41.128Z,2.60
2022-11-29T19:05:11.703Z,2.60
2022-11-29T19:07:40.364Z,2.60
2022-11-29T19:10:10.142Z,2.50
2022-11-29T19:12:40.117Z,2.50
2022-11-29T19:15:10.162Z,2.40
2022-11-29T19:17:42.988Z,2.40
2022-11-29T19:20:13.556Z,2.40
2022-11-29T19:22:44.481Z,2.40
2022-11-29T19:25:13.039Z,2.30
2022-11-29T19:27:45.033Z,2.30
2022-11-29T19:30:17.524Z,2.30
2022-11-29T19:32:46.204Z,2.30
2022-11-29T19:35:14.740Z,2.30
2022-11-29T19:37:43.444Z,2.30
2022-11-29T19:40:13.848Z,2.20
2022-11-29T19:42:45.684Z,2.20
2022-11-29T19:45:17.354Z,2.20
2022-11-29T19:47:46.522Z,2.20
2022-11-29T19:50:15.102Z,2.20
2022-11-29T19:52:43.718Z,2.10
2022-11-29T19:55:12.681Z,2.10
2022-11-29T19:57:41.328Z,2.10
2022-11-29T20:00:14.800Z,2.10
2022-11-29T20:02:43.788Z,2.00
2022-11-29T20:05:13.162Z,2.00
2022-11-29T20:07:42.218Z,2.00
2022-11-29T20:10:11.532Z,1.90
2022-11-29T20:12:41.312Z,1.90
2022-11-29T20:15:11.774Z,1.90
2022-11-29T20:17:42.014Z,1.80
2022-11-29T20:20:12.355Z,1.80
2022-11-29T20:22:41.544Z,1.70
2022-11-29T20:25:10.446Z,1.70
2022-11-29T20:27:39.119Z,1.60
2022-11-29T20:30:11.202Z,1.60
2022-11-29T20:32:40.814Z,1.50
2022-11-29T20:35:11.292Z,1.50
2022-11-29T20:38:01.751Z,1.40
2022-11-29T20:40:40.352Z,1.30
2022-11-29T20:43:17.666Z,1.20
2022-11-29T20:45:48.626Z,1.10
2022-11-29T20:48:20.349Z,1.10
2022-11-29T20:50:54.759Z,1.00
2022-11-29T20:53:35.079Z,0.90
2022-11-29T20:56:04.377Z,0.90
2022-11-29T20:58:33.287Z,0.90
2022-11-29T21:01:04.197Z,0.80
2022-11-29T21:03:33.004Z,0.80
2022-11-29T21:06:04.595Z,0.70
2022-11-29T21:08:34.476Z,0.70
2022-11-29T21:11:05.223Z,0.60
2022-11-29T21:13:36.605Z,0.60
2022-11-29T21:16:07.607Z,0.60
2022-11-29T21:18:36.805Z,0.50
2022-11-29T21:21:15.099Z,0.50
2022-11-29T21:23:53.208Z,0.50
2022-11-29T21:26:26.065Z,0.40
2022-11-29T21:29:05.956Z,0.40
2022-11-29T21:31:37.819Z,0.40
2022-11-29T21:34:06.532Z,0.30
2022-11-29T21:36:35.213Z,0.30
2022-11-29T21:39:05.496Z,0.30
2022-11-29T21:41:34.596Z,0.30
2022-11-29T21:44:07.811Z,0.30
2022-11-29T21:46:38.207Z,0.20
2022-11-29T21:49:06.766Z,0.20
2022-11-29T21:51:35.277Z,0.20
2022-11-29T21:54:04.156Z,0.20
2022-11-29T21:56:33.044Z,0.10
2022-11-29T21:59:01.645Z,0.10
2022-11-29T22:01:30.236Z,0.10
2022-11-29T22:04:00.334Z,0.10
2022-11-29T22:06:29.549Z,0.10
2022-11-29T22:09:00.041Z,0.00
2022-11-29T22:11:35.607Z,0.00
2022-11-29T22:14:14.760Z,0.00
2022-11-29T22:16:48.617Z,0.00
2022-11-29T22:19:19.978Z,-0.10
2022-11-29T22:21:50.374Z,-0.10
2022-11-29T22:24:21.827Z,-0.10
2022-11-29T22:26:52.069Z,-0.20
2022-11-29T22:29:21.507Z,-0.20
2022-11-29T22:31:52.927Z,-0.30
2022-11-29T22:34:25.252Z,-0.20
2022-11-29T22:36:54.277Z,-0.30
2022-11-29T22:39:24.889Z,-0.30
2022-11-29T22:41:55.053Z,-0.30
2022-11-29T22:44:24.149Z,-0.40
2022-11-29T22:46:52.897Z,-0.40
2022-11-29T22:49:22.821Z,-0.50
2022-11-29T22:51:52.367Z,-0.40
2022-11-29T22:54:21.035Z,-0.40
2022-11-29T22:56:50.394Z,-0.50
2022-11-29T22:59:19.035Z,-0.40
2022-11-29T23:01:47.575Z,-0.40
2022-11-29T23:04:16.206Z,-0.40
2022-11-29T23:06:47.208Z,-0.40
2022-11-29T23:09:19.975Z,-0.40
2022-11-29T23:11:52.118Z,-0.40
2022-11-29T23:14:22.159Z,-0.40
2022-11-29T23:16:51.125Z,-0.40
2022-11-29T23:19:20.047Z,-0.40
2022-11-29T23:21:51.247Z,-0.40
2022-11-29T23:24:20.435Z,-0.40
2022-11-29T23:26:49.307Z,-0.40
2022-11-29T23:29:19.863Z,-0.40
2022-11-29T23:31:50.157Z,-0.40
2022-11-29T23:34:19.091Z,-0.40
2022-11-29T23:36:52.619Z,-0.40
2022-11-29T23:39:23.023Z,-0.40
2022-11-29T23:41:52.521Z,-0.40
2022-11-29T23:44:21.057Z,-0.40
2022-11-29T23:46:49.572Z,-0.40
2022-11-29T23:49:18.062Z,-0.40
2022-11-29T23:51:46.562Z,-0.40
2022-11-29T23:54:15.080Z,-0.40
2022-11-29T23:56:45.007Z,-0.40
2022-11-29T23:59:13.525Z,-0.40
